sensor_id;sensor_type;location;lat;lon;timestamp;pressure;altitude;pressure_sealevel;temperature;humidity
50672;BME280;46021;55.882;37.654;2023-04-01T00:01:53;98119.00;;;0.11;82.99
50672;BME280;46021;55.882;37.654;2023-04-01T00:04:20;98118.16;;;0.10;83.49
50672;BME280;46021;55.882;37.654;2023-04-01T00:06:48;98130.16;;;0.07;82.71
50672;BME280;46021;55.882;37.654;2023-04-01T00:09:15;98120.81;;;0.04;83.80
50672;BME280;46021;55.882;37.654;2023-04-01T00:11:45;98125.06;;;0.04;83.34
50672;BME280;46021;55.882;37.654;2023-04-01T00:14:13;98121.75;;;-0.02;83.75
50672;BME280;46021;55.882;37.654;2023-04-01T00:16:40;98129.44;;;-0.02;82.74
50672;BME280;46021;55.882;37.654;2023-04-01T00:19:07;98128.53;;;0.01;83.92
50672;BME280;46021;55.882;37.654;2023-04-01T00:21:34;98121.69;;;0.02;82.79
50672;BME280;46021;55.882;37.654;2023-04-01T00:24:02;98118.28;;;0.03;83.73
50672;BME280;46021;55.882;37.654;2023-04-01T00:26:29;98121.66;;;0.06;82.91
50672;BME280;46021;55.882;37.654;2023-04-01T00:28:58;98119.06;;;0.08;82.76
50672;BME280;46021;55.882;37.654;2023-04-01T00:31:27;98115.63;;;0.09;83.24
50672;BME280;46021;55.882;37.654;2023-04-01T00:33:55;98120.72;;;0.12;84.31
50672;BME280;46021;55.882;37.654;2023-04-01T00:36:24;98119.00;;;0.11;83.82
50672;BME280;46021;55.882;37.654;2023-04-01T00:38:51;98113.88;;;0.11;83.70
50672;BME280;46021;55.882;37.654;2023-04-01T00:41:19;98114.81;;;0.05;84.23
50672;BME280;46021;55.882;37.654;2023-04-01T00:43:48;98115.72;;;0.01;83.07
50672;BME280;46021;55.882;37.654;2023-04-01T00:46:17;98106.41;;;-0.03;84.34
50672;BME280;46021;55.882;37.654;2023-04-01T00:48:48;98113.31;;;-0.08;83.20
50672;BME280;46021;55.882;37.654;2023-04-01T00:51:20;98109.09;;;-0.11;84.15
50672;BME280;46021;55.882;37.654;2023-04-01T00:53:50;98110.94;;;-0.22;83.85
50672;BME280;46021;55.882;37.654;2023-04-01T00:56:21;98103.28;;;-0.25;84.29
50672;BME280;46021;55.882;37.654;2023-04-01T00:58:51;98102.47;;;-0.27;83.72
50672;BME280;46021;55.882;37.654;2023-04-01T01:01:22;98103.50;;;-0.41;85.06
50672;BME280;46021;55.882;37.654;2023-04-01T01:03:50;98107.72;;;-0.38;83.97
50672;BME280;46021;55.882;37.654;2023-04-01T01:06:25;98107.72;;;-0.36;84.01
50672;BME280;46021;55.882;37.654;2023-04-01T01:09:13;98106.97;;;-0.43;85.22
50672;BME280;46021;55.882;37.654;2023-04-01T01:11:46;98106.16;;;-0.45;85.28
50672;BME280;46021;55.882;37.654;2023-04-01T01:14:27;98105.28;;;-0.46;85.20
50672;BME280;46021;55.882;37.654;2023-04-01T01:17:08;98100.19;;;-0.47;85.55
50672;BME280;46021;55.882;37.654;2023-04-01T01:19:52;98105.22;;;-0.41;84.47
50672;BME280;46021;55.882;37.654;2023-04-01T01:22:38;98111.09;;;-0.34;84.55
50672;BME280;46021;55.882;37.654;2023-04-01T01:25:31;98108.50;;;-0.30;84.90
50672;BME280;46021;55.882;37.654;2023-04-01T01:28:15;98110.97;;;-0.25;84.62
50672;BME280;46021;55.882;37.654;2023-04-01T01:30:50;98108.41;;;-0.24;85.60
50672;BME280;46021;55.882;37.654;2023-04-01T01:33:35;98102.34;;;-0.18;85.48
50672;BME280;46021;55.882;37.654;2023-04-01T01:36:09;98109.94;;;-0.13;85.20
50672;BME280;46021;55.882;37.654;2023-04-01T01:38:39;98109.09;;;-0.11;84.87
50672;BME280;46021;55.882;37.654;2023-04-01T01:41:08;98105.63;;;-0.10;85.06
50672;BME280;46021;55.882;37.654;2023-04-01T01:43:39;98107.34;;;-0.09;84.98
50672;BME280;46021;55.882;37.654;2023-04-01T01:46:10;98105.63;;;-0.10;85.38
50672;BME280;46021;55.882;37.654;2023-04-01T01:48:40;98110.72;;;-0.07;86.34
50672;BME280;46021;55.882;37.654;2023-04-01T01:51:10;98105.59;;;-0.07;86.32
50672;BME280;46021;55.882;37.654;2023-04-01T01:53:37;98092.13;;;-0.20;87.30
50672;BME280;46021;55.882;37.654;2023-04-01T01:56:05;98105.69;;;-0.11;86.33
50672;BME280;46021;55.882;37.654;2023-04-01T01:58:39;98105.72;;;-0.16;85.92
50672;BME280;46021;55.882;37.654;2023-04-01T02:01:14;98107.38;;;-0.12;86.44
50672;BME280;46021;55.882;37.654;2023-04-01T02:03:45;98114.13;;;-0.08;87.32
50672;BME280;46021;55.882;37.654;2023-04-01T02:06:16;98115.00;;;-0.06;86.63
50672;BME280;46021;55.882;37.654;2023-04-01T02:08:47;98112.38;;;-0.03;87.02
50672;BME280;46021;55.882;37.654;2023-04-01T02:11:18;98115.81;;;-0.04;87.00
50672;BME280;46021;55.882;37.654;2023-04-01T02:13:52;98109.06;;;-0.09;87.71
50672;BME280;46021;55.882;37.654;2023-04-01T02:16:45;98117.63;;;-0.12;87.48
50672;BME280;46021;55.882;37.654;2023-04-01T02:19:16;98123.75;;;-0.21;86.98
50672;BME280;46021;55.882;37.654;2023-04-01T02:21:51;98126.34;;;-0.25;87.91
50672;BME280;46021;55.882;37.654;2023-04-01T02:24:23;98127.19;;;-0.25;87.93
50672;BME280;46021;55.882;37.654;2023-04-01T02:26:52;98128.00;;;-0.21;88.15
50672;BME280;46021;55.882;37.654;2023-04-01T02:29:22;98126.34;;;-0.25;87.01
50672;BME280;46021;55.882;37.654;2023-04-01T02:31:51;98132.28;;;-0.22;87.59
50672;BME280;46021;55.882;37.654;2023-04-01T02:34:21;98131.44;;;-0.22;86.77
50672;BME280;46021;55.882;37.654;2023-04-01T02:36:51;98119.59;;;-0.32;88.15
50672;BME280;46021;55.882;37.654;2023-04-01T02:39:19;98123.06;;;-0.36;88.32
50672;BME280;46021;55.882;37.654;2023-04-01T02:41:46;98132.34;;;-0.28;88.69
50672;BME280;46021;55.882;37.654;2023-04-01T02:44:14;98139.97;;;-0.23;87.64
50672;BME280;46021;55.882;37.654;2023-04-01T02:46:43;98138.22;;;-0.21;88.83
50672;BME280;46021;55.882;37.654;2023-04-01T02:49:10;98139.94;;;-0.20;88.05
50672;BME280;46021;55.882;37.654;2023-04-01T02:51:38;98136.56;;;-0.22;87.27
50672;BME280;46021;55.882;37.654;2023-04-01T02:54:07;98132.25;;;-0.20;87.65
50672;BME280;46021;55.882;37.654;2023-04-01T02:56:34;98133.09;;;-0.21;88.81
50672;BME280;46021;55.882;37.654;2023-04-01T02:59:01;98129.69;;;-0.20;88.00
50672;BME280;46021;55.882;37.654;2023-04-01T03:01:28;98119.44;;;-0.20;88.54
50672;BME280;46021;55.882;37.654;2023-04-01T03:03:55;98134.72;;;-0.14;88.95
50672;BME280;46021;55.882;37.654;2023-04-01T03:06:23;98133.00;;;-0.12;89.14
50672;BME280;46021;55.882;37.654;2023-04-01T03:08:50;98133.91;;;-0.17;88.69
50672;BME280;46021;55.882;37.654;2023-04-01T03:11:18;98135.63;;;-0.16;88.79
50672;BME280;46021;55.882;37.654;2023-04-01T03:13:46;98137.31;;;-0.15;89.75
50672;BME280;46021;55.882;37.654;2023-04-01T03:16:14;98131.38;;;-0.19;88.57
50672;BME280;46021;55.882;37.654;2023-04-01T03:18:41;98141.59;;;-0.16;88.25
50672;BME280;46021;55.882;37.654;2023-04-01T03:21:13;98139.84;;;-0.14;88.25
50672;BME280;46021;55.882;37.654;2023-04-01T03:23:41;98139.81;;;-0.11;88.62
50672;BME280;46021;55.882;37.654;2023-04-01T03:26:08;98145.72;;;-0.06;89.86
50672;BME280;46021;55.882;37.654;2023-04-01T03:28:38;98155.06;;;-0.02;88.40
50672;BME280;46021;55.882;37.654;2023-04-01T03:31:06;98155.09;;;-0.05;89.33
50672;BME280;46021;55.882;37.654;2023-04-01T03:33:40;98156.00;;;-0.07;87.66
50672;BME280;46021;55.882;37.654;2023-04-01T03:36:08;98148.44;;;-0.16;88.06
50672;BME280;46021;55.882;37.654;2023-04-01T03:38:37;98158.56;;;-0.09;89.32
50672;BME280;46021;55.882;37.654;2023-04-01T03:41:04;98161.94;;;-0.07;88.84
50672;BME280;46021;55.882;37.654;2023-04-01T03:43:32;98161.84;;;-0.01;88.67
50672;BME280;46021;55.882;37.654;2023-04-01T03:46:01;98168.63;;;0.04;89.05
50672;BME280;46021;55.882;37.654;2023-04-01T03:48:29;98171.25;;;0.02;88.73
50672;BME280;46021;55.882;37.654;2023-04-01T03:50:56;98169.50;;;0.04;89.60
50672;BME280;46021;55.882;37.654;2023-04-01T03:53:24;98163.56;;;0.01;88.63
50672;BME280;46021;55.882;37.654;2023-04-01T03:55:54;98175.38;;;0.09;88.97
50672;BME280;46021;55.882;37.654;2023-04-01T03:58:22;98177.91;;;0.12;89.44
50672;BME280;46021;55.882;37.654;2023-04-01T04:00:50;98181.28;;;0.17;89.41
50672;BME280;46021;55.882;37.654;2023-04-01T04:03:19;98183.75;;;0.22;88.81
50672;BME280;46021;55.882;37.654;2023-04-01T04:05:48;98184.53;;;0.27;89.40
50672;BME280;46021;55.882;37.654;2023-04-01T04:08:17;98188.75;;;0.31;90.17
50672;BME280;46021;55.882;37.654;2023-04-01T04:10:47;98193.84;;;0.34;90.91
50672;BME280;46021;55.882;37.654;2023-04-01T04:13:15;98192.94;;;0.37;88.51
50672;BME280;46021;55.882;37.654;2023-04-01T04:15:49;98198.88;;;0.41;89.76
50672;BME280;46021;55.882;37.654;2023-04-01T04:18:16;98196.22;;;0.45;90.03
50672;BME280;46021;55.882;37.654;2023-04-01T04:20:45;98197.94;;;0.46;88.46
50672;BME280;46021;55.882;37.654;2023-04-01T04:23:16;98200.50;;;0.45;88.52
50672;BME280;46021;55.882;37.654;2023-04-01T04:25:54;98200.50;;;0.46;90.17
50672;BME280;46021;55.882;37.654;2023-04-01T04:28:21;98208.19;;;0.45;89.50
50672;BME280;46021;55.882;37.654;2023-04-01T04:30:49;98204.81;;;0.41;89.47
50672;BME280;46021;55.882;37.654;2023-04-01T04:33:16;98205.66;;;0.42;89.26
50672;BME280;46021;55.882;37.654;2023-04-01T04:35:44;98213.44;;;0.37;88.99
50672;BME280;46021;55.882;37.654;2023-04-01T04:38:12;98211.75;;;0.36;88.43
50672;BME280;46021;55.882;37.654;2023-04-01T04:40:41;98205.72;;;0.38;88.54
50672;BME280;46021;55.882;37.654;2023-04-01T04:43:10;98211.59;;;0.45;90.76
50672;BME280;46021;55.882;37.654;2023-04-01T04:45:38;98217.50;;;0.52;89.52
50672;BME280;46021;55.882;37.654;2023-04-01T04:48:06;98212.38;;;0.52;89.24
50672;BME280;46021;55.882;37.654;2023-04-01T04:50:34;98218.19;;;0.62;90.17
50672;BME280;46021;55.882;37.654;2023-04-01T04:53:02;98226.66;;;0.68;89.92
50672;BME280;46021;55.882;37.654;2023-04-01T04:55:31;98219.78;;;0.72;89.71
50672;BME280;46021;55.882;37.654;2023-04-01T04:58:17;98229.84;;;0.83;89.47
50672;BME280;46021;55.882;37.654;2023-04-01T05:00:45;98225.53;;;0.85;89.14
50672;BME280;46021;55.882;37.654;2023-04-01T05:03:19;98227.09;;;0.95;89.88
50672;BME280;46021;55.882;37.654;2023-04-01T05:05:51;98237.22;;;1.03;89.28
50672;BME280;46021;55.882;37.654;2023-04-01T05:08:21;98243.16;;;1.06;90.10
50672;BME280;46021;55.882;37.654;2023-04-01T05:10:48;98244.72;;;1.13;90.12
50672;BME280;46021;55.882;37.654;2023-04-01T05:13:15;98240.44;;;1.14;90.38
50672;BME280;46021;55.882;37.654;2023-04-01T05:15:45;98244.53;;;1.24;89.64
50672;BME280;46021;55.882;37.654;2023-04-01T05:18:13;98247.03;;;1.29;89.05
50672;BME280;46021;55.882;37.654;2023-04-01T05:20:46;98244.31;;;1.38;89.51
50672;BME280;46021;55.882;37.654;2023-04-01T05:23:13;98241.63;;;1.44;90.41
50672;BME280;46021;55.882;37.654;2023-04-01T05:25:42;98250.03;;;1.52;90.56
50672;BME280;46021;55.882;37.654;2023-04-01T05:28:10;98243.09;;;1.58;89.96
50672;BME280;46021;55.882;37.654;2023-04-01T05:30:40;98249.84;;;1.62;90.31
50672;BME280;46021;55.882;37.654;2023-04-01T05:33:21;98240.34;;;1.68;89.70
50672;BME280;46021;55.882;37.654;2023-04-01T05:35:49;98237.84;;;1.64;90.28
50672;BME280;46021;55.882;37.654;2023-04-01T05:38:17;98246.31;;;1.67;88.48
50672;BME280;46021;55.882;37.654;2023-04-01T05:40:45;98238.50;;;1.73;89.96
50672;BME280;46021;55.882;37.654;2023-04-01T05:43:12;98246.19;;;1.75;89.41
50672;BME280;46021;55.882;37.654;2023-04-01T05:45:41;98242.75;;;1.76;89.34
50672;BME280;46021;55.882;37.654;2023-04-01T05:48:12;98246.97;;;1.79;89.24
50672;BME280;46021;55.882;37.654;2023-04-01T05:50:40;98251.16;;;1.83;88.98
50672;BME280;46021;55.882;37.654;2023-04-01T05:53:09;98253.72;;;1.84;89.59
50672;BME280;46021;55.882;37.654;2023-04-01T05:55:39;98255.34;;;1.87;89.01
50672;BME280;46021;55.882;37.654;2023-04-01T05:58:08;98251.00;;;1.90;89.16
50672;BME280;46021;55.882;37.654;2023-04-01T06:00:37;98254.41;;;1.92;89.44
50672;BME280;46021;55.882;37.654;2023-04-01T06:03:05;98267.97;;;2.01;89.22
50672;BME280;46021;55.882;37.654;2023-04-01T06:05:38;98269.59;;;2.05;88.54
50672;BME280;46021;55.882;37.654;2023-04-01T06:08:10;98275.56;;;2.05;88.62
50672;BME280;46021;55.882;37.654;2023-04-01T06:10:55;98277.22;;;2.08;88.95
50672;BME280;46021;55.882;37.654;2023-04-01T06:13:39;98276.38;;;2.07;87.39
50672;BME280;46021;55.882;37.654;2023-04-01T06:16:18;98270.97;;;2.21;89.25
50672;BME280;46021;55.882;37.654;2023-04-01T06:18:55;98266.59;;;2.25;89.25
50672;BME280;46021;55.882;37.654;2023-04-01T06:22:02;98268.25;;;2.27;88.05
50672;BME280;46021;55.882;37.654;2023-04-01T06:24:48;98279.88;;;2.45;87.32
50672;BME280;46021;55.882;37.654;2023-04-01T06:27:29;98275.25;;;2.61;88.56
50672;BME280;46021;55.882;37.654;2023-04-01T06:30:16;98281.03;;;2.71;87.82
50672;BME280;46021;55.882;37.654;2023-04-01T06:33:05;98278.13;;;2.85;88.44
50672;BME280;46021;55.882;37.654;2023-04-01T06:35:44;98268.50;;;2.93;87.76
50672;BME280;46021;55.882;37.654;2023-04-01T06:38:36;98288.84;;;3.04;87.05
50672;BME280;46021;55.882;37.654;2023-04-01T06:41:26;98285.47;;;3.00;86.70
50672;BME280;46021;55.882;37.654;2023-04-01T06:44:11;98289.81;;;2.98;86.53
50672;BME280;46021;55.882;37.654;2023-04-01T06:47:04;98288.22;;;2.94;86.55
50672;BME280;46021;55.882;37.654;2023-04-01T06:50:09;98293.09;;;3.06;87.32
50672;BME280;46021;55.882;37.654;2023-04-01T06:53:21;98289.25;;;3.21;87.08
50672;BME280;46021;55.882;37.654;2023-04-01T06:56:15;98290.78;;;3.30;86.83
50672;BME280;46021;55.882;37.654;2023-04-01T06:59:09;98296.00;;;3.27;84.67
50672;BME280;46021;55.882;37.654;2023-04-01T07:01:41;98294.41;;;3.21;85.18
50672;BME280;46021;55.882;37.654;2023-04-01T07:04:14;98297.69;;;3.28;85.16
50672;BME280;46021;55.882;37.654;2023-04-01T07:06:47;98298.44;;;3.33;84.70
50672;BME280;46021;55.882;37.654;2023-04-01T07:09:19;98302.47;;;3.43;85.29
50672;BME280;46021;55.882;37.654;2023-04-01T07:12:11;98290.22;;;3.51;85.34
50672;BME280;46021;55.882;37.654;2023-04-01T07:15:05;98301.72;;;3.73;84.54
50672;BME280;46021;55.882;37.654;2023-04-01T07:17:39;98303.97;;;3.85;85.67
50672;BME280;46021;55.882;37.654;2023-04-01T07:20:17;98301.28;;;3.89;84.49
50672;BME280;46021;55.882;37.654;2023-04-01T07:22:48;98299.41;;;3.95;84.56
50672;BME280;46021;55.882;37.654;2023-04-01T07:25:35;98299.66;;;3.85;82.92
50672;BME280;46021;55.882;37.654;2023-04-01T07:28:38;98300.50;;;3.86;84.00
50672;BME280;46021;55.882;37.654;2023-04-01T07:31:44;98302.00;;;3.93;83.04
50672;BME280;46021;55.882;37.654;2023-04-01T07:34:17;98297.53;;;4.00;83.38
50672;BME280;46021;55.882;37.654;2023-04-01T07:36:53;98298.09;;;4.11;82.73
50672;BME280;46021;55.882;37.654;2023-04-01T07:39:31;98294.31;;;4.23;83.36
50672;BME280;46021;55.882;37.654;2023-04-01T07:42:25;98316.25;;;4.67;82.61
50672;BME280;46021;55.882;37.654;2023-04-01T07:45:03;98296.34;;;4.99;82.93
50672;BME280;46021;55.882;37.654;2023-04-01T07:47:47;98314.03;;;5.38;80.90
50672;BME280;46021;55.882;37.654;2023-04-01T07:50:22;98310.53;;;5.66;80.34
50672;BME280;46021;55.882;37.654;2023-04-01T07:53:01;98318.72;;;5.79;78.20
50672;BME280;46021;55.882;37.654;2023-04-01T07:55:39;98317.22;;;5.72;77.52
50672;BME280;46021;55.882;37.654;2023-04-01T07:58:14;98316.22;;;5.51;77.12
50672;BME280;46021;55.882;37.654;2023-04-01T08:00:53;98329.69;;;5.34;76.11
50672;BME280;46021;55.882;37.654;2023-04-01T08:03:42;98320.66;;;5.20;75.99
50672;BME280;46021;55.882;37.654;2023-04-01T08:06:16;98334.34;;;5.22;76.76
50672;BME280;46021;55.882;37.654;2023-04-01T08:08:59;98335.69;;;5.34;76.27
50672;BME280;46021;55.882;37.654;2023-04-01T08:11:56;98334.03;;;5.33;76.18
50672;BME280;46021;55.882;37.654;2023-04-01T08:15:06;98337.03;;;5.46;76.42
50672;BME280;46021;55.882;37.654;2023-04-01T08:18:02;98337.53;;;5.57;73.98
50672;BME280;46021;55.882;37.654;2023-04-01T08:20:41;98343.81;;;6.02;76.37
50672;BME280;46021;55.882;37.654;2023-04-01T08:23:18;98331.72;;;6.28;74.30
50672;BME280;46021;55.882;37.654;2023-04-01T08:25:52;98322.59;;;6.41;72.80
50672;BME280;46021;55.882;37.654;2023-04-01T08:28:29;98329.56;;;6.62;73.65
50672;BME280;46021;55.882;37.654;2023-04-01T08:31:04;98339.69;;;6.45;71.16
50672;BME280;46021;55.882;37.654;2023-04-01T08:33:33;98342.00;;;6.53;71.11
50672;BME280;46021;55.882;37.654;2023-04-01T08:36:08;98333.66;;;6.44;70.04
50672;BME280;46021;55.882;37.654;2023-04-01T08:38:40;98328.44;;;6.22;68.51
50672;BME280;46021;55.882;37.654;2023-04-01T08:41:44;98340.91;;;6.11;65.08
50672;BME280;46021;55.882;37.654;2023-04-01T08:44:51;98337.72;;;6.28;65.32
50672;BME280;46021;55.882;37.654;2023-04-01T08:47:46;98352.16;;;6.57;65.44
50672;BME280;46021;55.882;37.654;2023-04-01T08:50:30;98346.41;;;6.96;65.31
50672;BME280;46021;55.882;37.654;2023-04-01T08:53:33;98334.09;;;7.23;65.08
50672;BME280;46021;55.882;37.654;2023-04-01T08:56:14;98351.50;;;7.42;62.78
50672;BME280;46021;55.882;37.654;2023-04-01T08:59:13;98354.31;;;7.78;62.98
50672;BME280;46021;55.882;37.654;2023-04-01T09:01:57;98342.75;;;8.27;64.48
50672;BME280;46021;55.882;37.654;2023-04-01T09:04:52;98348.44;;;8.55;60.84
50672;BME280;46021;55.882;37.654;2023-04-01T09:07:36;98348.59;;;8.90;61.82
50672;BME280;46021;55.882;37.654;2023-04-01T09:10:33;98353.00;;;9.79;56.79
50672;BME280;46021;55.882;37.654;2023-04-01T09:13:37;98355.19;;;11.96;56.14
50672;BME280;46021;55.882;37.654;2023-04-01T09:16:21;98353.97;;;13.97;51.44
50672;BME280;46021;55.882;37.654;2023-04-01T09:19:24;98365.75;;;15.66;45.48
50672;BME280;46021;55.882;37.654;2023-04-01T09:22:13;98353.66;;;16.34;40.74
50672;BME280;46021;55.882;37.654;2023-04-01T09:25:20;98348.88;;;16.28;38.75
50672;BME280;46021;55.882;37.654;2023-04-01T09:27:55;98360.41;;;16.03;39.40
50672;BME280;46021;55.882;37.654;2023-04-01T09:30:39;98358.91;;;16.57;38.57
50672;BME280;46021;55.882;37.654;2023-04-01T09:33:37;98350.13;;;17.36;37.20
50672;BME280;46021;55.882;37.654;2023-04-01T09:36:16;98366.66;;;17.26;36.88
50672;BME280;46021;55.882;37.654;2023-04-01T09:38:56;98354.31;;;17.27;36.90
50672;BME280;46021;55.882;37.654;2023-04-01T09:41:27;98358.56;;;16.95;35.45
50672;BME280;46021;55.882;37.654;2023-04-01T09:44:10;98353.47;;;17.70;37.28
50672;BME280;46021;55.882;37.654;2023-04-01T09:47:09;98359.88;;;18.09;34.30
50672;BME280;46021;55.882;37.654;2023-04-01T09:50:11;98373.66;;;17.92;34.16
50672;BME280;46021;55.882;37.654;2023-04-01T09:52:45;98365.72;;;17.16;35.50
50672;BME280;46021;55.882;37.654;2023-04-01T09:59:09;98369.44;;;16.80;34.41
50672;BME280;46021;55.882;37.654;2023-04-01T10:02:54;98375.97;;;17.42;34.45
50672;BME280;46021;55.882;37.654;2023-04-01T10:14:54;98387.31;;;19.11;32.56
50672;BME280;46021;55.882;37.654;2023-04-01T10:18:04;98372.34;;;19.21;30.93
50672;BME280;46021;55.882;37.654;2023-04-01T10:21:05;98381.88;;;19.72;30.88
50672;BME280;46021;55.882;37.654;2023-04-01T10:24:16;98395.78;;;20.13;30.25
50672;BME280;46021;55.882;37.654;2023-04-01T10:27:33;98389.09;;;18.69;32.02
50672;BME280;46021;55.882;37.654;2023-04-01T10:33:45;98395.78;;;20.13;29.42
50672;BME280;46021;55.882;37.654;2023-04-01T10:36:33;98389.59;;;21.17;30.14
50672;BME280;46021;55.882;37.654;2023-04-01T10:39:27;98392.44;;;21.61;28.40
50672;BME280;46021;55.882;37.654;2023-04-01T10:42:50;98392.91;;;22.36;28.13
50672;BME280;46021;55.882;37.654;2023-04-01T10:46:05;98404.06;;;21.22;26.49
50672;BME280;46021;55.882;37.654;2023-04-01T10:49:26;98409.69;;;20.35;27.67
50672;BME280;46021;55.882;37.654;2023-04-01T11:05:53;98405.34;;;18.44;29.31
50672;BME280;46021;55.882;37.654;2023-04-01T11:09:00;98402.91;;;19.14;29.92
50672;BME280;46021;55.882;37.654;2023-04-01T11:11:57;98411.41;;;19.77;29.32
50672;BME280;46021;55.882;37.654;2023-04-01T11:18:20;98416.63;;;20.36;29.77
50672;BME280;46021;55.882;37.654;2023-04-01T11:24:21;98422.75;;;21.31;28.06
50672;BME280;46021;55.882;37.654;2023-04-01T11:27:36;98422.16;;;20.62;26.38
50672;BME280;46021;55.882;37.654;2023-04-01T11:30:19;98420.00;;;19.09;27.45
50672;BME280;46021;55.882;37.654;2023-04-01T11:32:53;98413.00;;;18.26;28.58
50672;BME280;46021;55.882;37.654;2023-04-01T11:35:46;98416.16;;;17.99;28.78
50672;BME280;46021;55.882;37.654;2023-04-01T11:38:27;98421.88;;;16.83;29.67
50672;BME280;46021;55.882;37.654;2023-04-01T11:41:24;98424.78;;;16.44;31.53
50672;BME280;46021;55.882;37.654;2023-04-01T11:44:17;98421.72;;;16.73;31.10
50672;BME280;46021;55.882;37.654;2023-04-01T11:47:09;98436.56;;;15.81;30.94
50672;BME280;46021;55.882;37.654;2023-04-01T11:49:50;98432.06;;;14.96;32.01
50672;BME280;46021;55.882;37.654;2023-04-01T11:52:43;98428.38;;;13.94;33.35
50672;BME280;46021;55.882;37.654;2023-04-01T11:55:38;98435.75;;;12.63;35.57
50672;BME280;46021;55.882;37.654;2023-04-01T11:58:20;98443.06;;;12.27;35.69
50672;BME280;46021;55.882;37.654;2023-04-01T12:00:59;98433.97;;;12.04;36.29
50672;BME280;46021;55.882;37.654;2023-04-01T12:06:30;98436.47;;;11.28;37.22
50672;BME280;46021;55.882;37.654;2023-04-01T12:09:07;98443.03;;;10.70;38.79
50672;BME280;46021;55.882;37.654;2023-04-01T12:11:43;98437.41;;;10.09;39.37
50672;BME280;46021;55.882;37.654;2023-04-01T12:14:18;98441.34;;;9.82;39.75
50672;BME280;46021;55.882;37.654;2023-04-01T12:17:04;98449.38;;;9.77;40.35
50672;BME280;46021;55.882;37.654;2023-04-01T12:19:42;98451.31;;;9.73;40.56
50672;BME280;46021;55.882;37.654;2023-04-01T12:22:27;98444.16;;;9.77;40.66
50672;BME280;46021;55.882;37.654;2023-04-01T12:25:14;98453.31;;;9.86;40.27
50672;BME280;46021;55.882;37.654;2023-04-01T12:27:56;98448.00;;;9.70;41.02
50672;BME280;46021;55.882;37.654;2023-04-01T12:30:43;98443.06;;;9.64;40.87
50672;BME280;46021;55.882;37.654;2023-04-01T12:36:26;98443.78;;;9.67;41.02
50672;BME280;46021;55.882;37.654;2023-04-01T12:39:17;98446.25;;;9.70;41.82
50672;BME280;46021;55.882;37.654;2023-04-01T12:41:55;98435.50;;;9.59;41.87
50672;BME280;46021;55.882;37.654;2023-04-01T12:44:34;98455.34;;;9.43;42.23
50672;BME280;46021;55.882;37.654;2023-04-01T12:47:40;98453.59;;;9.24;42.82
50672;BME280;46021;55.882;37.654;2023-04-01T12:50:28;98459.72;;;9.23;42.61
50672;BME280;46021;55.882;37.654;2023-04-01T12:53:11;98457.59;;;9.12;42.98
50672;BME280;46021;55.882;37.654;2023-04-01T12:55:42;98464.84;;;9.06;43.14
50672;BME280;46021;55.882;37.654;2023-04-01T12:58:46;98470.59;;;8.93;43.76
50672;BME280;46021;55.882;37.654;2023-04-01T13:01:30;98469.56;;;8.77;44.46
50672;BME280;46021;55.882;37.654;2023-04-01T13:10:02;98473.06;;;8.57;45.32
50672;BME280;46021;55.882;37.654;2023-04-01T13:13:09;98475.97;;;8.70;45.38
50672;BME280;46021;55.882;37.654;2023-04-01T13:15:47;98468.41;;;8.84;44.48
50672;BME280;46021;55.882;37.654;2023-04-01T13:18:25;98469.81;;;8.91;44.45
50672;BME280;46021;55.882;37.654;2023-04-01T13:21:01;98469.56;;;8.77;44.58
50672;BME280;46021;55.882;37.654;2023-04-01T13:23:39;98490.78;;;8.68;44.02
50672;BME280;46021;55.882;37.654;2023-04-01T13:26:14;98488.31;;;8.65;44.35
50672;BME280;46021;55.882;37.654;2023-04-01T13:28:50;98493.88;;;8.55;43.88
50672;BME280;46021;55.882;37.654;2023-04-01T13:31:38;98491.97;;;8.38;43.86
50672;BME280;46021;55.882;37.654;2023-04-01T13:34:17;98479.97;;;8.15;43.69
50672;BME280;46021;55.882;37.654;2023-04-01T13:37:02;98492.53;;;8.04;43.50
50672;BME280;46021;55.882;37.654;2023-04-01T13:39:44;98503.28;;;7.95;44.09
50672;BME280;46021;55.882;37.654;2023-04-01T13:42:21;98488.06;;;7.86;44.66
50672;BME280;46021;55.882;37.654;2023-04-01T13:44:54;98507.88;;;7.88;44.63
50672;BME280;46021;55.882;37.654;2023-04-01T13:47:47;98501.81;;;7.88;44.62
50672;BME280;46021;55.882;37.654;2023-04-01T13:50:47;98502.19;;;7.78;44.39
50672;BME280;46021;55.882;37.654;2023-04-01T13:53:35;98501.59;;;7.72;45.47
50672;BME280;46021;55.882;37.654;2023-04-01T13:56:16;98509.34;;;7.73;45.93
50672;BME280;46021;55.882;37.654;2023-04-01T13:58:58;98506.75;;;7.73;45.86
50672;BME280;46021;55.882;37.654;2023-04-01T14:01:40;98507.72;;;7.69;46.26
50672;BME280;46021;55.882;37.654;2023-04-01T14:04:38;98508.34;;;7.54;47.53
50672;BME280;46021;55.882;37.654;2023-04-01T14:07:36;98509.50;;;7.47;47.58
50672;BME280;46021;55.882;37.654;2023-04-01T14:10:19;98523.53;;;7.41;48.41
50672;BME280;46021;55.882;37.654;2023-04-01T14:12:57;98526.22;;;7.38;48.06
50672;BME280;46021;55.882;37.654;2023-04-01T14:15:41;98519.53;;;7.32;48.93
50672;BME280;46021;55.882;37.654;2023-04-01T14:18:18;98520.59;;;7.27;48.16
50672;BME280;46021;55.882;37.654;2023-04-01T14:20:53;98531.19;;;7.20;49.01
50672;BME280;46021;55.882;37.654;2023-04-01T14:29:45;98539.34;;;7.10;50.28
50672;BME280;46021;55.882;37.654;2023-04-01T14:32:29;98542.44;;;6.96;51.01
50672;BME280;46021;55.882;37.654;2023-04-01T14:35:21;98532.22;;;6.91;51.15
50672;BME280;46021;55.882;37.654;2023-04-01T14:41:06;98545.31;;;6.88;50.96
50672;BME280;46021;55.882;37.654;2023-04-01T14:44:11;98546.28;;;6.84;51.01
50672;BME280;46021;55.882;37.654;2023-04-01T14:47:14;98551.59;;;6.81;52.00
50672;BME280;46021;55.882;37.654;2023-04-01T14:49:46;98562.31;;;6.70;51.72
50672;BME280;46021;55.882;37.654;2023-04-01T14:52:23;98550.91;;;6.51;52.29
50672;BME280;46021;55.882;37.654;2023-04-01T14:54:52;98555.34;;;6.47;52.26
50672;BME280;46021;55.882;37.654;2023-04-01T14:57:26;98565.69;;;6.47;52.69